Time;durP1;ratioP1;P1;durP2;ratioP2;P2;SDS_P1;SDS_P2;PMS_P1;PMS_P2;Temp;Humidity;BMP_temperature;BMP_pressure;BME280_temperature;BME280_humidity;BME280_pressure;Samples;Min_cycle;Max_cycle;Signal;HPM_P1;HPM_P2
2022/03/24 00:01:59;;;;;;;11.90;7.60;;;;;;;17.13;24.11;97773.50;5134695;27;20105;-32
2022/03/24 00:04:25;;;;;;;10.45;7.60;;;;;;;17.09;24.03;97764.59;5134017;27;20015;-32
2022/03/24 00:06:51;;;;;;;11.55;8.00;;;;;;;17.11;24.19;97769.66;5134442;27;20019;-32
2022/03/24 00:09:16;;;;;;;10.32;7.20;;;;;;;17.06;24.33;97762.72;5134325;28;20027;-33
2022/03/24 00:11:42;;;;;;;9.77;7.57;;;;;;;17.01;24.15;97754.28;5134448;28;20035;-33
2022/03/24 00:14:08;;;;;;;11.98;8.18;;;;;;;17.04;23.91;97756.16;5134304;28;20027;-33
2022/03/24 00:16:33;;;;;;;10.88;7.38;;;;;;;16.97;24.22;97756.34;5134541;28;20044;-32
2022/03/24 00:18:59;;;;;;;9.93;7.60;;;;;;;16.99;24.08;97757.47;5134183;28;20076;-32
2022/03/24 00:21:26;;;;;;;10.50;7.90;;;;;;;17.07;23.95;97758.00;5134198;28;20061;-32
2022/03/24 00:23:52;;;;;;;9.77;7.20;;;;;;;16.98;24.27;97760.63;5134183;28;20112;-32
2022/03/24 00:26:18;;;;;;;11.07;6.80;;;;;;;17.02;24.00;97761.31;5104865;28;20028;-33
2022/03/24 00:28:44;;;;;;;10.00;7.30;;;;;;;17.03;23.86;97751.88;5112096;28;20118;-33
2022/03/24 00:31:10;;;;;;;9.45;6.70;;;;;;;16.94;23.94;97749.78;5113917;28;20031;-32
2022/03/24 00:33:38;;;;;;;10.32;7.63;;;;;;;16.97;23.94;97753.63;5113942;28;20076;-32
2022/03/24 00:36:09;;;;;;;9.20;7.03;;;;;;;16.94;23.88;97765.47;5113495;28;20022;-32
2022/03/24 00:38:34;;;;;;;10.05;7.60;;;;;;;17.12;23.95;97749.25;5113975;28;20085;-32
2022/03/24 00:41:02;;;;;;;10.75;6.80;;;;;;;17.01;23.87;97749.56;5113710;28;20460;-32
2022/03/24 00:43:29;;;;;;;9.30;6.95;;;;;;;17.02;23.85;97750.34;5113702;28;20039;-33
2022/03/24 00:45:55;;;;;;;9.02;6.85;;;;;;;17.07;23.73;97749.78;5113284;28;20027;-32
2022/03/24 00:48:20;;;;;;;13.65;8.77;;;;;;;17.00;23.79;97753.53;5095356;28;20027;-33
2022/03/24 00:50:46;;;;;;;10.15;7.30;;;;;;;17.06;23.84;97749.03;5113595;28;20020;-33
2022/03/24 00:53:12;;;;;;;9.73;6.80;;;;;;;17.04;23.71;97747.94;5113615;28;20032;-32
2022/03/24 00:55:39;;;;;;;13.07;7.53;;;;;;;17.00;23.77;97750.00;5113439;28;20023;-32
2022/03/24 00:58:05;;;;;;;10.63;7.28;;;;;;;17.00;23.75;97744.53;5113475;28;20108;-33
2022/03/24 01:00:32;;;;;;;11.60;7.80;;;;;;;16.98;23.96;97749.69;5113023;28;20495;-33
2022/03/24 01:02:58;;;;;;;9.32;6.72;;;;;;;17.02;23.78;97755.84;5113388;28;20061;-32
2022/03/24 01:05:27;;;;;;;10.38;7.40;;;;;;;16.98;23.68;97749.69;5113446;28;20536;-32
2022/03/24 01:07:53;;;;;;;11.10;7.22;;;;;;;17.02;23.64;97761.31;5113316;28;20031;-32
2022/03/24 01:10:20;;;;;;;9.13;6.68;;;;;;;17.01;23.72;97755.06;5113706;28;20075;-33
2022/03/24 01:12:47;;;;;;;10.60;7.00;;;;;;;17.01;23.99;97754.28;5113238;28;20023;-32
2022/03/24 01:15:16;;;;;;;9.63;7.03;;;;;;;16.96;23.55;97752.09;5114322;28;20028;-32
2022/03/24 01:17:42;;;;;;;9.48;6.35;;;;;;;16.98;23.51;97755.94;5116955;28;20422;-32
2022/03/24 01:20:09;;;;;;;9.57;7.00;;;;;;;17.01;23.76;97759.78;5117173;28;20112;-32
2022/03/24 01:22:36;;;;;;;8.95;6.97;;;;;;;16.96;23.74;97743.84;5116944;28;20016;-32
2022/03/24 01:25:02;;;;;;;9.15;6.93;;;;;;;16.92;23.62;97746.72;5117036;28;20047;-33
2022/03/24 01:27:28;;;;;;;8.13;6.32;;;;;;;16.81;23.68;97741.53;5116683;28;20019;-33
2022/03/24 01:29:57;;;;;;;14.93;7.25;;;;;;;16.90;23.60;97745.63;5116852;28;20019;-33
2022/03/24 01:32:24;;;;;;;12.10;7.03;;;;;;;16.92;23.74;97735.00;5116681;28;20483;-32
2022/03/24 01:34:51;;;;;;;10.73;6.40;;;;;;;16.94;23.51;97741.56;5116721;28;20019;-32
2022/03/24 01:37:17;;;;;;;10.40;6.75;;;;;;;16.85;23.59;97741.44;5116499;28;20064;-33
2022/03/24 01:39:42;;;;;;;8.80;6.68;;;;;;;16.88;23.42;97735.09;5116572;28;20110;-33
2022/03/24 01:42:09;;;;;;;8.52;6.28;;;;;;;16.94;23.52;97735.34;5116277;28;20098;-32
2022/03/24 01:44:34;;;;;;;9.05;7.18;;;;;;;16.92;23.39;97733.03;5116331;28;20452;-32
2022/03/24 01:47:05;;;;;;;9.25;6.90;;;;;;;16.91;23.54;97734.22;5116210;28;20034;-32
2022/03/24 01:49:37;;;;;;;9.98;6.75;;;;;;;16.91;23.65;97727.97;5116409;28;20027;-33
2022/03/24 01:52:05;;;;;;;9.88;6.88;;;;;;;16.92;23.46;97735.00;5116417;28;20027;-33
2022/03/24 01:54:32;;;;;;;8.52;6.60;;;;;;;16.87;23.46;97734.31;5116207;28;20024;-32
2022/03/24 01:56:59;;;;;;;10.02;7.28;;;;;;;16.88;23.49;97737.84;5116502;28;20069;-33
2022/03/24 01:59:25;;;;;;;8.55;6.38;;;;;;;16.86;23.56;97727.31;5115813;28;20027;-30
2022/03/24 02:01:51;;;;;;;10.75;6.93;;;;;;;16.84;23.47;97723.47;5097858;28;20451;-32
2022/03/24 02:04:19;;;;;;;8.32;6.65;;;;;;;16.90;23.41;97726.44;5116282;28;20057;-32
2022/03/24 02:06:45;;;;;;;8.95;7.10;;;;;;;16.80;23.40;97712.63;5097697;28;20032;-32
2022/03/24 02:09:12;;;;;;;8.77;6.75;;;;;;;16.90;23.42;97719.00;5116137;28;20038;-32
2022/03/24 02:11:38;;;;;;;8.50;6.55;;;;;;;16.81;23.41;97714.13;5097669;28;20035;-33
2022/03/24 02:14:05;;;;;;;8.65;6.20;;;;;;;16.84;23.37;97710.53;5115938;28;20023;-33
2022/03/24 02:16:34;;;;;;;10.05;7.35;;;;;;;16.90;23.42;97713.50;5115998;28;20486;-33
2022/03/24 02:19:21;;;;;;;9.75;6.88;;;;;;;16.86;23.30;97710.88;5116068;28;20028;-32
2022/03/24 02:21:48;;;;;;;10.73;6.95;;;;;;;16.80;23.27;97707.16;5115911;28;20020;-32
2022/03/24 02:24:16;;;;;;;11.13;6.70;;;;;;;16.73;23.59;97715.56;5115648;28;20023;-32
2022/03/24 02:26:44;;;;;;;8.50;6.47;;;;;;;16.77;23.41;97710.75;5115336;28;20027;-32
2022/03/24 02:29:11;;;;;;;9.63;7.07;;;;;;;16.78;23.26;97714.25;5115477;28;20020;-32
2022/03/24 02:31:40;;;;;;;9.32;7.10;;;;;;;16.84;23.47;97712.50;5116035;28;20054;-33
2022/03/24 02:36:52;;;;;;;8.10;6.13;;;;;;;16.71;23.52;97712.47;5115627;28;20023;-33
2022/03/24 02:39:18;;;;;;;8.70;6.68;;;;;;;16.72;23.55;97707.78;5115409;28;20027;-33
2022/03/24 02:41:51;;;;;;;10.30;6.90;;;;;;;16.73;23.66;97718.28;5115226;28;20024;-33
2022/03/24 02:44:17;;;;;;;;;;;;;;;16.74;23.63;97713.59;5115654;28;20491;-32
2022/03/24 02:46:47;;;;;;;10.15;7.20;;;;;;;16.66;23.57;97721.25;5115191;28;19915;-33
2022/03/24 02:49:24;;;;;;;10.02;7.35;;;;;;;16.68;23.57;97715.34;5115142;28;20035;-33
2022/03/24 02:51:51;;;;;;;8.93;6.70;;;;;;;16.71;23.55;97715.22;5097044;28;20015;-32
2022/03/24 02:54:17;;;;;;;10.65;7.07;;;;;;;16.67;23.64;97708.31;5096707;28;20610;-33
2022/03/24 02:56:43;;;;;;;9.30;6.80;;;;;;;16.66;23.57;97713.03;5096695;28;20027;-33
2022/03/24 02:59:10;;;;;;;10.95;7.20;;;;;;;16.59;23.63;97707.72;5115287;28;20027;-32
2022/03/24 03:01:38;;;;;;;9.13;6.68;;;;;;;16.63;23.60;97719.38;5115197;28;20461;-32
2022/03/24 03:04:05;;;;;;;8.13;6.43;;;;;;;16.62;23.67;97719.78;5114991;28;20068;-32
2022/03/24 03:06:33;;;;;;;9.27;6.72;;;;;;;16.60;23.65;97713.97;5114773;28;20030;-32
2022/03/24 03:09:01;;;;;;;12.00;6.97;;;;;;;16.61;23.41;97721.75;5114934;28;20050;-32
2022/03/24 03:11:30;;;;;;;9.90;6.97;;;;;;;16.56;23.63;97721.53;5114767;28;20019;-32
2022/03/24 03:13:56;;;;;;;10.25;7.07;;;;;;;16.57;23.68;97725.81;5114766;28;20383;-32
2022/03/24 03:16:23;;;;;;;10.18;6.93;;;;;;;16.56;23.67;97719.56;5114741;28;20022;-33
2022/03/24 03:18:48;;;;;;;10.65;7.20;;;;;;;16.53;23.50;97720.41;5114617;28;20479;-32
2022/03/24 03:21:16;;;;;;;9.95;6.85;;;;;;;16.55;23.79;97722.72;5114512;28;20076;-33
2022/03/24 03:23:43;;;;;;;11.23;7.05;;;;;;;16.58;23.62;97721.84;5114571;28;20020;-32
2022/03/24 03:26:10;;;;;;;9.75;6.90;;;;;;;16.62;23.56;97723.31;5114850;28;20360;-32
2022/03/24 03:28:36;;;;;;;10.98;7.18;;;;;;;16.56;23.66;97725.03;5114387;28;20049;-33
2022/03/24 03:31:02;;;;;;;11.85;7.22;;;;;;;16.58;23.56;97724.56;5096199;28;20436;-32
2022/03/24 03:33:29;;;;;;;8.52;6.70;;;;;;;16.58;23.66;97725.34;5114551;28;20095;-33
2022/03/24 03:35:54;;;;;;;7.85;6.55;;;;;;;16.57;23.40;97723.81;5114817;28;20068;-32
2022/03/24 03:38:20;;;;;;;10.35;7.10;;;;;;;16.60;23.72;97725.69;5113853;28;20019;-33
2022/03/24 03:40:46;;;;;;;8.82;6.93;;;;;;;16.65;23.46;97722.44;5114079;28;20106;-33
2022/03/24 03:43:14;;;;;;;13.07;7.45;;;;;;;16.60;23.40;97719.44;5095843;28;20027;-32
2022/03/24 03:45:41;;;;;;;9.18;6.53;;;;;;;16.56;23.52;97719.56;5114143;28;20107;-33
2022/03/24 03:48:07;;;;;;;9.52;7.40;;;;;;;16.61;23.40;97721.75;5114163;28;20098;-32
2022/03/24 03:50:33;;;;;;;9.77;7.00;;;;;;;16.63;23.48;97724.84;5114188;28;20031;-32
2022/03/24 03:53:00;;;;;;;10.40;6.97;;;;;;;16.58;23.52;97733.56;5113986;28;20020;-33
2022/03/24 03:55:27;;;;;;;8.13;6.68;;;;;;;16.57;23.31;97715.59;5114235;28;20039;-32
2022/03/24 03:57:53;;;;;;;11.02;6.60;;;;;;;16.53;23.42;97723.94;5095817;28;20085;-32
2022/03/24 04:03:04;;;;;;;9.30;7.25;;;;;;;16.58;23.40;97722.59;5114146;28;20072;-32
2022/03/24 04:05:35;;;;;;;9.95;7.15;;;;;;;16.53;23.43;97725.91;5113747;28;20120;-32
2022/03/24 04:08:04;;;;;;;8.95;6.88;;;;;;;16.51;23.33;97720.84;5113899;28;20016;-32
2022/03/24 04:10:30;;;;;;;9.50;7.10;;;;;;;16.52;23.26;97722.38;5113916;28;20023;-32
2022/03/24 04:12:57;;;;;;;11.30;7.82;;;;;;;16.42;23.28;97726.19;5113938;28;20015;-33
2022/03/24 04:15:23;;;;;;;9.30;7.05;;;;;;;16.46;23.61;97715.13;5114026;28;20429;-32
2022/03/24 04:17:50;;;;;;;8.77;6.57;;;;;;;16.45;23.41;97716.31;5113921;28;20145;-33
2022/03/24 04:20:20;;;;;;;9.63;6.95;;;;;;;16.48;23.12;97724.44;5114081;28;20098;-33
2022/03/24 04:22:50;;;;;;;12.55;7.10;;;;;;;16.46;23.40;97724.09;5113916;28;20120;-32
2022/03/24 04:25:17;;;;;;;10.23;7.10;;;;;;;16.44;23.47;97723.78;5113875;28;20028;-33
2022/03/24 04:27:43;;;;;;;10.60;7.55;;;;;;;16.40;23.57;97725.09;5113817;28;20356;-32
2022/03/24 04:30:12;;;;;;;9.98;6.97;;;;;;;16.46;23.44;97723.34;5113815;28;20031;-33
2022/03/24 04:32:40;;;;;;;10.35;7.00;;;;;;;16.46;23.49;97728.81;5113637;28;20030;-32
2022/03/24 04:35:07;;;;;;;10.60;6.55;;;;;;;16.40;23.50;97723.13;5113571;28;20034;-32
2022/03/24 04:37:33;;;;;;;10.88;7.60;;;;;;;16.46;23.57;97723.34;5113426;28;20106;-33
2022/03/24 04:39:59;;;;;;;11.05;7.05;;;;;;;16.41;23.48;97726.63;5113570;28;20108;-32
2022/03/24 04:42:25;;;;;;;11.07;7.28;;;;;;;16.35;23.50;97723.63;5095619;28;20371;-32
2022/03/24 04:44:50;;;;;;;12.98;8.52;;;;;;;16.29;23.76;97716.41;5113703;28;20015;-32
2022/03/24 04:47:16;;;;;;;10.75;7.05;;;;;;;16.32;23.83;97724.50;5113408;28;20019;-32
2022/03/24 04:49:42;;;;;;;12.18;7.68;;;;;;;16.33;23.60;97725.28;5113757;28;20080;-32
2022/03/24 04:52:08;;;;;;;10.90;7.47;;;;;;;16.29;23.58;97719.91;5117708;28;20027;-32
2022/03/24 04:54:34;;;;;;;10.80;6.22;;;;;;;16.30;23.63;97728.88;5099128;28;20412;-33
2022/03/24 04:57:00;;;;;;;10.45;7.20;;;;;;;16.25;23.80;97726.66;5117532;28;20019;-32
2022/03/24 04:59:26;;;;;;;12.15;6.95;;;;;;;16.26;23.79;97725.47;5117189;28;20092;-32
2022/03/24 05:01:52;;;;;;;13.48;7.45;;;;;;;16.28;23.91;97723.84;5117240;28;20463;-33
2022/03/24 05:04:17;;;;;;;11.40;7.55;;;;;;;16.34;23.65;97730.31;5117202;28;20038;-32
2022/03/24 05:06:43;;;;;;;11.20;6.10;;;;;;;16.29;23.90;97732.81;5117246;28;20073;-33
2022/03/24 05:09:09;;;;;;;13.77;7.28;;;;;;;16.29;23.72;97732.81;5117101;28;20019;-32
2022/03/24 05:11:38;;;;;;;11.10;7.32;;;;;;;16.37;23.71;97739.63;5117128;28;20019;-33
2022/03/24 05:14:03;;;;;;;10.95;7.03;;;;;;;16.35;23.84;97734.59;5117018;28;20029;-32
2022/03/24 05:16:29;;;;;;;11.32;7.10;;;;;;;16.28;23.79;97745.75;5117225;28;20098;-32
2022/03/24 05:18:54;;;;;;;11.20;6.90;;;;;;;16.37;24.00;97742.38;5116988;28;20034;-32
2022/03/24 05:21:20;;;;;;;9.63;7.03;;;;;;;16.34;23.92;97743.22;5117396;28;20030;-32
2022/03/24 05:23:46;;;;;;;9.65;6.97;;;;;;;16.33;23.80;97750.69;5116919;28;20471;-32
2022/03/24 05:26:12;;;;;;;9.93;6.72;;;;;;;16.29;23.87;97743.78;5116832;28;20031;-32
2022/03/24 05:28:39;;;;;;;10.98;6.88;;;;;;;16.27;23.98;97754.38;5116726;28;20023;-33
2022/03/24 05:31:05;;;;;;;11.88;7.03;;;;;;;16.25;24.04;97749.34;5116710;28;20437;-32
2022/03/24 05:33:30;;;;;;;10.27;7.43;;;;;;;16.30;23.86;97746.09;5116928;28;20024;-32
2022/03/24 05:35:56;;;;;;;8.98;6.30;;;;;;;16.37;23.84;97756.84;5121648;27;20076;-32
2022/03/24 05:38:22;;;;;;;10.27;6.60;;;;;;;16.29;23.86;97760.19;5135686;27;20124;-33
2022/03/24 05:40:48;;;;;;;12.95;7.60;;;;;;;16.28;23.93;97758.66;5135653;27;20019;-32
2022/03/24 05:43:13;;;;;;;11.15;7.20;;;;;;;16.22;23.95;97763.88;5135566;27;20031;-32
2022/03/24 05:45:39;;;;;;;10.23;6.97;;;;;;;16.23;24.05;97772.88;5135517;27;20455;-32
2022/03/24 05:48:05;;;;;;;11.00;6.60;;;;;;;16.25;24.20;97767.72;5135213;27;20739;-32
2022/03/24 05:50:31;;;;;;;11.05;7.05;;;;;;;16.23;23.99;97764.66;5134010;27;20027;-33
2022/03/24 05:52:57;;;;;;;11.23;7.13;;;;;;;16.24;24.32;97761.50;5135032;27;20037;-33
2022/03/24 05:55:26;;;;;;;15.13;7.05;;;;;;;16.28;24.12;97767.66;5114410;28;20030;-32
2022/03/24 05:57:51;;;;;;;11.50;7.38;;;;;;;16.29;24.24;97784.84;5114491;28;20076;-32
2022/03/24 06:00:17;;;;;;;14.75;7.60;;;;;;;16.28;24.27;97781.34;5114228;28;20045;-32
2022/03/24 06:02:43;;;;;;;11.18;7.70;;;;;;;16.23;24.23;97778.34;5114257;28;20042;-32
2022/03/24 06:05:12;;;;;;;16.98;7.97;;;;;;;16.25;24.12;97773.22;5114790;28;20024;-32
2022/03/24 06:07:40;;;;;;;14.52;7.60;;;;;;;16.26;24.33;97770.03;5114578;28;21829;-32
2022/03/24 06:10:08;;;;;;;14.40;7.45;;;;;;;16.22;24.49;97774.06;5114491;28;20038;-32
2022/03/24 06:12:34;;;;;;;16.33;8.30;;;;;;;16.24;24.27;97774.41;5114244;28;20046;-32
2022/03/24 06:15:00;;;;;;;13.60;6.78;;;;;;;16.25;24.28;97775.94;5114241;28;20023;-32
2022/03/24 06:17:26;;;;;;;13.18;7.43;;;;;;;16.28;24.32;97783.31;5095865;28;20027;-32
2022/03/24 06:19:53;;;;;;;11.73;7.13;;;;;;;16.30;24.31;97778.16;5114318;28;20118;-32
2022/03/24 06:22:19;;;;;;;14.48;7.63;;;;;;;16.21;24.38;97786.97;5114139;28;20027;-32
2022/03/24 06:24:45;;;;;;;12.85;6.97;;;;;;;16.29;24.52;97782.88;5114013;28;20035;-33
2022/03/24 06:27:11;;;;;;;15.32;7.70;;;;;;;16.24;24.50;97783.38;5114113;28;20019;-32
2022/03/24 06:29:36;;;;;;;14.65;7.60;;;;;;;16.28;24.42;97791.50;5115272;27;20030;-34
2022/03/24 06:32:03;;;;;;;13.60;7.63;;;;;;;16.33;24.42;97788.22;5134363;27;20027;-32
2022/03/24 06:34:29;;;;;;;14.05;7.32;;;;;;;16.30;24.29;97789.13;5133248;27;20488;-33
2022/03/24 06:36:54;;;;;;;11.88;6.93;;;;;;;16.35;24.39;97794.06;5134223;27;20130;-32
2022/03/24 06:39:23;;;;;;;13.70;7.40;;;;;;;16.35;24.18;97791.31;5134385;27;20015;-32
2022/03/24 06:41:49;;;;;;;14.90;7.60;;;;;;;16.36;24.55;97784.63;5133861;27;20484;-32
2022/03/24 06:44:16;;;;;;;12.45;7.35;;;;;;;16.36;24.68;97788.16;5134418;27;20091;-32
2022/03/24 06:46:42;;;;;;;16.42;7.82;;;;;;;16.27;24.81;97787.25;5133876;27;20027;-33
2022/03/24 06:49:07;;;;;;;12.48;7.85;;;;;;;16.24;24.92;97796.31;5121249;27;20031;-32
2022/03/24 06:51:34;;;;;;;14.27;8.05;;;;;;;16.21;25.09;97791.69;5112057;28;20422;-33
2022/03/24 06:54:01;;;;;;;15.27;7.13;;;;;;;16.30;24.95;97798.09;5113667;28;20157;-33
2022/03/24 06:56:27;;;;;;;14.70;7.40;;;;;;;16.26;25.07;97789.19;5113702;28;20027;-32
2022/03/24 06:58:53;;;;;;;14.50;7.80;;;;;;;16.24;25.25;97799.03;5113320;28;20027;-33
2022/03/24 07:01:19;;;;;;;11.93;7.47;;;;;;;16.26;25.35;97788.44;5113329;28;20051;-32
2022/03/24 07:03:44;;;;;;;14.15;7.00;;;;;;;16.15;25.61;97786.75;5113379;28;20054;-33
2022/03/24 07:06:10;;;;;;;12.07;7.55;;;;;;;16.24;25.51;97791.59;5113255;28;20490;-33
2022/03/24 07:08:36;;;;;;;18.63;9.65;;;;;;;16.27;25.63;97795.44;5124858;27;20588;-33
2022/03/24 07:11:03;;;;;;;23.60;12.10;;;;;;;16.34;25.50;97798.00;5135588;27;20078;-33
2022/03/24 07:13:29;;;;;;;25.10;12.68;;;;;;;16.31;25.68;97796.13;5134581;27;20023;-33
2022/03/24 07:15:55;;;;;;;25.38;12.30;;;;;;;16.26;25.82;97796.66;5135082;27;20018;-32
2022/03/24 07:18:21;;;;;;;24.83;11.52;;;;;;;16.26;25.92;97800.16;5135258;27;20371;-32
2022/03/24 07:20:50;;;;;;;20.33;10.57;;;;;;;16.30;26.01;97800.06;5134462;27;20062;-33
2022/03/24 07:23:17;;;;;;;22.55;10.48;;;;;;;16.29;26.06;97798.53;5133615;27;20019;-33
2022/03/24 07:25:43;;;;;;;15.95;9.23;;;;;;;16.28;26.18;97802.47;5134913;27;20031;-33
2022/03/24 07:28:10;;;;;;;19.60;11.27;;;;;;;16.26;26.29;97800.16;5135072;27;20168;-33
2022/03/24 07:30:36;;;;;;;18.27;10.18;;;;;;;16.24;26.44;97807.25;5134931;27;20072;-33
2022/03/24 07:33:02;;;;;;;18.83;10.07;;;;;;;16.21;26.63;97803.41;5116673;27;20023;-33
2022/03/24 07:35:34;;;;;;;16.25;9.00;;;;;;;16.20;26.65;97812.81;5116450;27;20030;-33
2022/03/24 07:38:00;;;;;;;15.63;10.40;;;;;;;15.17;28.88;97807.00;5135058;27;20068;-32
2022/03/24 07:40:26;;;;;;;15.27;9.73;;;;;;;14.64;30.80;97805.34;5134283;27;20027;-30
2022/03/24 07:42:54;;;;;;;19.33;10.82;;;;;;;15.14;29.91;97815.28;5134881;27;20027;-32
2022/03/24 07:45:21;;;;;;;13.50;9.40;;;;;;;15.46;29.13;97816.09;5134901;27;20019;-32
2022/03/24 07:48:09;;;;;;;15.77;9.65;;;;;;;15.66;28.93;97815.31;5134658;27;20027;-31
2022/03/24 07:50:36;;;;;;;15.07;9.57;;;;;;;15.84;28.44;97817.63;5134713;27;20125;-32
2022/03/24 07:53:27;;;;;;;17.08;9.77;;;;;;;15.75;28.63;97820.97;5134493;27;20603;-32
2022/03/24 07:55:55;;;;;;;11.80;8.45;;;;;;;15.87;28.42;97823.00;5134061;27;20084;-31
2022/03/24 07:58:21;;;;;;;12.98;8.43;;;;;;;15.89;28.07;97822.59;5134532;27;20035;-31
2022/03/24 08:00:47;;;;;;;15.13;7.97;;;;;;;15.64;27.35;97823.19;5134611;27;20050;-32
2022/03/24 08:03:20;;;;;;;11.43;8.23;;;;;;;15.82;27.40;97820.81;5134767;27;20046;-31
2022/03/24 08:05:47;;;;;;;;;;;;;;;15.78;27.54;97817.38;5135097;27;20071;-32
2022/03/24 08:08:14;;;;;;;13.00;7.82;;;;;;;15.82;27.49;97814.56;5134748;27;19961;-31
2022/03/24 08:10:42;;;;;;;14.95;8.38;;;;;;;15.75;27.42;97826.44;5134382;27;20024;-31
2022/03/24 08:13:13;;;;;;;12.65;7.90;;;;;;;15.75;27.22;97826.44;5134447;27;20099;-31
2022/03/24 08:15:39;;;;;;;12.95;7.50;;;;;;;15.80;27.31;97829.44;5134377;27;20023;-31
2022/03/24 08:18:06;;;;;;;12.38;7.75;;;;;;;15.64;27.03;97834.88;5134195;27;20022;-31
2022/03/24 08:20:38;;;;;;;11.82;7.13;;;;;;;15.70;26.42;97824.97;5134397;27;20076;-31
2022/03/24 08:23:11;;;;;;;10.15;6.35;;;;;;;15.83;26.90;97836.00;5134279;27;20015;-31
2022/03/24 08:25:38;;;;;;;9.93;6.63;;;;;;;15.76;26.74;97831.47;5138249;27;20054;-32
2022/03/24 08:28:05;;;;;;;14.25;7.05;;;;;;;15.80;26.46;97832.16;5120321;27;20031;-33
2022/03/24 08:30:31;;;;;;;9.77;7.00;;;;;;;15.88;26.07;97838.22;5120235;27;20023;-31
2022/03/24 08:32:57;;;;;;;14.93;6.60;;;;;;;15.88;26.36;97845.66;5138652;27;20108;-31
2022/03/24 08:35:23;;;;;;;10.98;7.22;;;;;;;15.78;26.82;97840.03;5138538;27;20019;-32
2022/03/24 08:37:49;;;;;;;10.60;6.55;;;;;;;15.90;26.31;97837.81;5138364;27;20030;-31
2022/03/24 08:40:15;;;;;;;13.48;6.75;;;;;;;15.89;26.54;97844.47;5138229;27;20102;-31
2022/03/24 08:42:42;;;;;;;12.50;6.28;;;;;;;15.92;26.56;97847.13;5138481;27;20047;-32
2022/03/24 08:45:10;;;;;;;14.75;6.55;;;;;;;15.79;25.85;97843.53;5138243;27;20034;-31
2022/03/24 08:47:35;;;;;;;10.10;6.68;;;;;;;16.04;26.37;97846.44;5138006;27;20358;-31
2022/03/24 08:50:04;;;;;;;13.43;7.63;;;;;;;15.77;26.75;97846.69;5138370;27;20106;-32
2022/03/24 08:52:30;;;;;;;11.80;7.05;;;;;;;15.70;26.70;97846.09;5137877;27;20027;-31
2022/03/24 08:54:56;;;;;;;13.88;7.45;;;;;;;15.74;26.88;97849.50;5138202;27;20054;-31
2022/03/24 08:57:28;;;;;;;11.60;7.30;;;;;;;16.01;26.86;97850.03;5137865;27;20410;-31
2022/03/24 09:00:02;;;;;;;16.23;8.05;;;;;;;15.92;27.01;97858.09;5137616;27;20107;-31
2022/03/24 09:02:28;;;;;;;12.45;7.50;;;;;;;15.99;26.72;97855.16;5137830;27;20041;-32
2022/03/24 09:04:54;;;;;;;11.57;7.80;;;;;;;15.90;26.89;97855.00;5137681;27;20034;-31
2022/03/24 09:07:20;;;;;;;10.43;7.55;;;;;;;15.93;26.93;97859.63;5137655;27;20031;-31
2022/03/24 09:09:45;;;;;;;10.93;6.43;;;;;;;15.90;27.10;97856.97;5137825;27;20019;-32
2022/03/24 09:12:12;;;;;;;11.65;6.75;;;;;;;16.01;26.82;97854.75;5137557;27;20031;-31
2022/03/24 09:14:42;;;;;;;12.38;6.72;;;;;;;16.04;26.90;97854.66;5137437;27;20080;-31
2022/03/24 09:17:08;;;;;;;10.93;7.25;;;;;;;16.10;26.35;97854.91;5119247;27;20011;-31
2022/03/24 09:19:34;;;;;;;16.38;7.15;;;;;;;15.91;27.12;97856.53;5137439;27;20072;-32
2022/03/24 09:22:04;;;;;;;10.35;7.13;;;;;;;16.12;26.91;97853.28;5137436;27;20047;-31
2022/03/24 09:24:30;;;;;;;10.07;6.95;;;;;;;16.27;26.67;97847.47;5136987;27;20360;-32
2022/03/24 09:26:56;;;;;;;13.73;8.00;;;;;;;15.97;27.14;97856.78;5137338;27;20023;-31
2022/03/24 09:29:22;;;;;;;10.32;6.68;;;;;;;16.02;27.03;97857.06;5136890;27;20044;-31
2022/03/24 09:31:48;;;;;;;10.13;6.63;;;;;;;16.25;26.75;97852.59;5137560;27;20015;-31
2022/03/24 09:34:13;;;;;;;9.70;6.35;;;;;;;16.30;26.70;97858.31;5137197;27;20024;-31
2022/03/24 09:36:40;;;;;;;8.98;5.93;;;;;;;16.37;26.73;97854.63;5136278;27;20023;-31
2022/03/24 09:39:07;;;;;;;9.63;6.13;;;;;;;16.44;26.69;97866.16;5137183;27;20100;-31
2022/03/24 09:41:34;;;;;;;11.05;6.88;;;;;;;16.42;26.70;97862.34;5137036;27;20045;-32
2022/03/24 09:44:00;;;;;;;11.20;6.47;;;;;;;16.44;26.59;97859.94;5137101;27;20156;-32
2022/03/24 09:46:29;;;;;;;9.07;5.75;;;;;;;16.49;26.60;97865.66;5137033;27;20098;-31
2022/03/24 09:48:56;;;;;;;9.25;6.53;;;;;;;16.48;26.69;97855.13;5137035;27;20030;-31
2022/03/24 09:51:22;;;;;;;10.02;6.25;;;;;;;16.50;26.47;97863.69;5136882;27;20080;-31
2022/03/24 09:53:49;;;;;;;13.02;6.65;;;;;;;16.49;26.70;97856.66;5136986;27;20462;-31
2022/03/24 09:56:15;;;;;;;10.07;6.05;;;;;;;16.57;26.70;97847.06;5136862;27;20034;-32
2022/03/24 09:58:44;;;;;;;8.43;6.45;;;;;;;16.51;26.91;97859.75;5136913;27;20030;-31
2022/03/24 10:01:13;;;;;;;9.63;5.97;;;;;;;16.38;26.96;97850.69;5136732;27;20051;-32
2022/03/24 10:03:39;;;;;;;7.38;5.72;;;;;;;16.49;26.91;97857.44;5136732;27;20379;-31
2022/03/24 10:06:07;;;;;;;10.60;6.70;;;;;;;16.54;26.83;97847.94;5136852;27;20463;-32
2022/03/24 10:08:34;;;;;;;9.23;5.93;;;;;;;16.58;26.92;97859.53;5118188;27;20490;-31
2022/03/24 10:11:02;;;;;;;9.02;6.20;;;;;;;16.58;26.79;97859.53;5136617;27;20096;-32
2022/03/24 10:13:50;;;;;;;10.10;6.28;;;;;;;16.58;26.90;97856.03;5136400;27;20102;-32
2022/03/24 10:16:34;;;;;;;8.77;6.03;;;;;;;16.58;26.98;97856.81;5136505;27;20026;-31
2022/03/24 10:19:01;;;;;;;8.73;5.70;;;;;;;16.61;26.87;97853.22;5117973;27;20027;-32
2022/03/24 10:21:31;;;;;;;9.57;5.35;;;;;;;16.66;26.91;97855.47;5136547;27;20102;-32
2022/03/24 10:24:00;;;;;;;10.88;6.53;;;;;;;16.69;26.82;97854.59;5136218;27;20094;-32
2022/03/24 10:26:47;;;;;;;10.63;6.70;;;;;;;16.68;26.79;97853.06;5136078;27;20023;-32
2022/03/24 10:29:16;;;;;;;8.73;6.38;;;;;;;16.71;26.75;97841.22;5136119;27;20031;-31
2022/03/24 10:31:43;;;;;;;12.98;6.72;;;;;;;16.74;26.65;97845.06;5136590;27;20367;-31
2022/03/24 10:34:11;;;;;;;12.80;6.90;;;;;;;16.73;26.88;97841.56;5117668;27;20031;-31
2022/03/24 10:36:38;;;;;;;13.85;6.32;;;;;;;16.71;26.98;97837.72;5135869;27;20458;-32
2022/03/24 10:39:05;;;;;;;10.73;6.53;;;;;;;16.76;26.86;97843.44;5117531;27;20058;-32
2022/03/24 10:41:33;;;;;;;10.00;6.78;;;;;;;16.74;26.92;97845.06;5136151;27;20024;-31
2022/03/24 10:44:10;;;;;;;10.80;6.63;;;;;;;16.76;27.01;97829.75;5135825;27;20531;-31
2022/03/24 10:46:41;;;;;;;9.90;7.00;;;;;;;16.75;27.03;97832.91;5135762;27;20034;-31
2022/03/24 10:49:24;;;;;;;10.13;6.88;;;;;;;16.76;27.03;97832.50;5135772;27;20027;-32
2022/03/24 10:51:51;;;;;;;13.30;7.57;;;;;;;16.78;27.19;97830.09;5135707;27;20102;-31
2022/03/24 10:54:41;;;;;;;9.02;6.50;;;;;;;16.80;26.88;97822.22;5135479;27;20051;-31
2022/03/24 10:57:12;;;;;;;10.15;6.38;;;;;;;16.80;26.86;97815.97;5135734;27;20015;-32
2022/03/24 11:00:11;;;;;;;10.45;6.47;;;;;;;16.77;26.97;97817.59;5135378;27;20047;-32
2022/03/24 11:02:36;;;;;;;10.52;6.22;;;;;;;16.82;27.00;97814.31;5134883;27;20027;-31
2022/03/24 11:05:04;;;;;;;12.48;6.38;;;;;;;16.83;26.87;97813.09;5135654;27;20062;-31
2022/03/24 11:07:30;;;;;;;10.30;6.72;;;;;;;16.81;26.98;97820.25;5135394;27;20102;-31
2022/03/24 11:09:56;;;;;;;10.25;6.20;;;;;;;16.75;27.04;97811.78;5135475;27;20144;-31
2022/03/24 11:12:35;;;;;;;10.25;6.40;;;;;;;16.77;26.92;97811.34;5116767;27;20029;-31
2022/03/24 11:15:03;;;;;;;11.95;6.68;;;;;;;16.83;27.00;97809.59;5135365;27;20383;-31
2022/03/24 11:17:35;;;;;;;12.30;6.30;;;;;;;16.81;26.77;97803.81;5116885;27;20032;-32
2022/03/24 11:20:15;;;;;;;9.60;6.20;;;;;;;16.81;26.85;97812.75;5135363;27;20019;-32
2022/03/24 11:22:50;;;;;;;8.57;6.28;;;;;;;16.76;26.95;97798.84;5135437;27;20102;-31
2022/03/24 11:25:19;;;;;;;10.05;6.03;;;;;;;16.81;26.59;97806.53;5135033;27;20030;-32
2022/03/24 11:27:46;;;;;;;8.73;5.55;;;;;;;16.85;26.59;97802.47;5135125;27;20023;-32
2022/03/24 11:30:13;;;;;;;8.10;5.75;;;;;;;16.87;26.65;97800.09;5135148;27;20444;-32
2022/03/24 11:32:44;;;;;;;8.68;5.97;;;;;;;16.74;26.75;97798.50;5134902;27;20111;-31
2022/03/24 11:35:11;;;;;;;9.48;5.90;;;;;;;16.74;26.66;97801.25;5134991;27;20026;-31